Time;durP1;ratioP1;P1;durP2;ratioP2;P2;SDS_P1;SDS_P2;PMS_P1;PMS_P2;Temp;Humidity;BMP_temperature;BMP_pressure;BME280_temperature;BME280_humidity;BME280_pressure;Samples;Min_cycle;Max_cycle;Signal;HPM_P1;HPM_P2
2023/04/18 00:01:32;;;;;;;;;;;;;;;-144.99;83.21;52386.94;5054247;28;20789;-64
2023/04/18 00:03:58;;;;;;;;;;;;;;;-144.99;83.31;52388.97;5052228;28;20394;-65
2023/04/18 00:06:31;;;;;;;;;;;;;;;-144.99;83.39;52388.97;5058564;28;19975;-65
2023/04/18 00:08:57;;;;;;;;;;;;;;;-144.99;83.97;52358.41;5058761;28;19951;-67
2023/04/18 00:11:24;;;;;;;;;;;;;;;-144.99;84.10;52374.72;5058169;28;20308;-66
2023/04/18 00:13:53;;;;;;;;;;;;;;;-144.99;84.27;52419.56;5056309;28;20016;-65
2023/04/18 00:16:21;;;;;;;;;;;;;;;-144.99;84.34;52382.88;5051437;28;19939;-66
2023/04/18 00:18:49;;;;;;;;;;;;;;;-144.99;84.71;52415.47;5049670;28;20347;-69
2023/04/18 00:21:16;;;;;;;;;;;;;;;-144.99;84.87;52374.72;5053171;28;20038;-75
2023/04/18 00:23:44;;;;;;;;;;;;;;;-144.99;84.61;52358.41;5049337;28;19936;-75
2023/04/18 00:26:11;;;;;;;;;;;;;;;-144.99;84.73;52338.03;5048191;28;20416;-75
2023/04/18 00:28:38;;;;;;;;;;;;;;;-144.99;84.76;52423.63;5051147;28;19925;-76
2023/04/18 00:31:04;;;;;;;;;;;;;;;-144.99;84.85;52403.25;5051289;28;19995;-67
2023/04/18 00:33:31;;;;;;;;;;;;;;;-144.99;84.52;52358.41;5048894;28;19934;-67
2023/04/18 00:35:59;;;;;;;;;;;;;;;-144.99;84.38;52358.41;5048179;28;19976;-67
2023/04/18 00:38:25;;;;;;;;;;;;;;;-144.99;84.22;52362.50;5053757;28;19960;-67
2023/04/18 00:40:52;;;;;;;;;;;;;;;-144.99;84.33;52368.59;5049681;28;20328;-68
2023/04/18 00:43:18;;;;;;;;;;;;;;;-144.99;84.40;52386.94;5054049;28;20027;-70
2023/04/18 00:45:45;;;;;;;;;;;;;;;-144.99;84.40;52358.41;5052444;28;19979;-70
2023/04/18 00:48:11;;;;;;;;;;;;;;;-144.99;84.42;52350.25;5049341;28;19925;-69
2023/04/18 00:50:39;;;;;;;;;;;;;;;-144.99;84.21;52378.78;5052028;28;20002;-66
2023/04/18 00:53:07;;;;;;;;;;;;;;;-144.99;84.29;52388.97;5045727;28;20387;-66
2023/04/18 00:55:34;;;;;;;;;;;;;;;-144.99;84.10;52388.97;5052229;28;19975;-66
2023/04/18 00:58:00;;;;;;;;;;;;;;;-144.99;84.23;52360.44;5053294;28;19928;-67
2023/04/18 01:00:27;;;;;;;;;;;;;;;-144.99;84.16;52380.84;5052504;28;20046;-66
2023/04/18 01:02:54;;;;;;;;;;;;;;;-144.99;84.47;52391.03;5052137;28;20008;-66
2023/04/18 01:05:21;;;;;;;;;;;;;;;-144.99;84.49;52386.94;5054100;28;20020;-67
2023/04/18 01:07:47;;;;;;;;;;;;;;;-144.99;84.59;52366.56;5051090;28;20027;-67
2023/04/18 01:10:15;;;;;;;;;;;;;;;-144.99;84.68;52374.72;5054023;28;19990;-67
2023/04/18 01:12:43;;;;;;;;;;;;;;;-144.99;84.84;52362.50;5053205;28;19998;-65
2023/04/18 01:15:10;;;;;;;;;;;;;;;-144.99;85.44;52374.72;5055527;28;19993;-64
2023/04/18 01:17:37;;;;;;;;;;;;;;;-144.99;85.55;52362.50;5053254;28;19924;-64
2023/04/18 01:20:05;;;;;;;;;;;;;;;-144.99;85.99;52344.16;5055885;28;19963;-64
2023/04/18 01:22:32;;;;;;;;;;;;;;;-144.99;86.05;52399.19;5053293;28;20459;-62
2023/04/18 01:24:59;;;;;;;;;;;;;;;-144.99;86.02;52397.13;5056291;28;19933;-66
2023/04/18 01:27:26;;;;;;;;;;;;;;;-144.99;86.07;52386.94;5053365;28;20032;-64
2023/04/18 01:29:52;;;;;;;;;;;;;;;-144.99;85.92;52388.97;5056989;28;19933;-64
2023/04/18 01:32:19;;;;;;;;;;;;;;;-144.99;85.64;52346.19;5060526;28;20330;-64
2023/04/18 01:34:46;;;;;;;;;;;;;;;-144.99;85.99;52384.91;5064686;28;20012;-64
2023/04/18 01:37:12;;;;;;;;;;;;;;;-144.99;85.84;52354.34;5055091;28;19929;-64
2023/04/18 01:39:39;;;;;;;;;;;;;;;-144.99;85.96;52370.63;5050309;28;20022;-66
2023/04/18 01:42:07;;;;;;;;;;;;;;;-144.99;86.07;52393.06;5056943;28;19970;-66
2023/04/18 01:44:33;;;;;;;;;;;;;;;-144.99;86.15;52393.06;5050851;28;19968;-66
2023/04/18 01:47:00;;;;;;;;;;;;;;;-144.99;86.25;52374.72;5051791;28;20009;-65
2023/04/18 01:49:26;;;;;;;;;;;;;;;-144.99;86.23;52397.13;5055987;28;20013;-65
2023/04/18 01:51:53;;;;;;;;;;;;;;;-144.99;86.23;52391.03;5049083;28;19968;-66
2023/04/18 01:54:20;;;;;;;;;;;;;;;-144.99;86.08;52391.03;5054578;28;19937;-65
2023/04/18 01:56:46;;;;;;;;;;;;;;;-144.99;85.94;52399.19;5047975;28;20029;-66
2023/04/18 01:59:14;;;;;;;;;;;;;;;-144.99;85.96;52388.97;5051558;28;20037;-65
2023/04/18 02:01:40;;;;;;;;;;;;;;;-144.99;86.05;52397.13;5054270;28;19981;-68
2023/04/18 02:04:07;;;;;;;;;;;;;;;-144.99;86.03;52395.09;5064002;28;19929;-69
2023/04/18 02:06:33;;;;;;;;;;;;;;;-144.99;85.95;52374.72;5067491;28;19985;-69
2023/04/18 02:09:00;;;;;;;;;;;;;;;-144.99;85.84;52407.31;5058459;28;19972;-63
2023/04/18 02:11:27;;;;;;;;;;;;;;;-144.99;85.98;52354.34;5055370;28;19996;-63
2023/04/18 02:13:53;;;;;;;;;;;;;;;-144.99;86.13;52362.50;5049514;28;19928;-63
2023/04/18 02:16:31;;;;;;;;;;;;;;;-144.99;86.26;52415.47;5049265;28;20119;-63
2023/04/18 02:18:59;;;;;;;;;;;;;;;-144.99;86.32;52364.53;5051177;28;20388;-63
2023/04/18 02:21:25;;;;;;;;;;;;;;;-144.99;86.30;52366.56;5048165;28;19928;-63
2023/04/18 02:23:52;;;;;;;;;;;;;;;-144.99;86.56;52391.03;5051864;28;19928;-63
2023/04/18 02:26:21;;;;;;;;;;;;;;;-144.99;86.58;52415.47;5049611;28;19968;-64
2023/04/18 02:28:48;;;;;;;;;;;;;;;-144.99;86.69;52374.72;5048595;28;19963;-64
2023/04/18 02:31:15;;;;;;;;;;;;;;;-144.99;86.81;52391.03;5051696;28;20061;-64
2023/04/18 02:33:43;;;;;;;;;;;;;;;-144.99;86.84;52423.63;5053252;28;19990;-64
2023/04/18 02:36:10;;;;;;;;;;;;;;;-144.99;87.04;52395.09;5054883;28;20027;-65
2023/04/18 02:38:36;;;;;;;;;;;;;;;-144.99;86.99;52378.78;5052989;28;19924;-65
2023/04/18 02:41:03;;;;;;;;;;;;;;;-144.99;87.09;52354.34;5055063;28;19989;-65
2023/04/18 02:43:29;;;;;;;;;;;;;;;-144.99;86.83;52395.09;5050455;28;19974;-65
2023/04/18 02:45:56;;;;;;;;;;;;;;;-144.99;86.79;52393.06;5049388;28;20539;-66
2023/04/18 02:48:22;;;;;;;;;;;;;;;-144.99;87.09;52407.31;5050932;28;19964;-64
2023/04/18 02:50:50;;;;;;;;;;;;;;;-144.99;87.01;52395.09;5055847;28;19972;-65
2023/04/18 02:53:17;;;;;;;;;;;;;;;-144.99;87.02;52401.22;5054361;28;19940;-64
2023/04/18 02:55:43;;;;;;;;;;;;;;;-144.99;87.04;52417.53;5050545;28;20014;-65
2023/04/18 02:58:10;;;;;;;;;;;;;;;-144.99;87.26;52366.56;5048749;28;19972;-63
2023/04/18 03:00:36;;;;;;;;;;;;;;;-144.99;87.36;52403.25;5052654;28;20459;-63
2023/04/18 03:03:04;;;;;;;;;;;;;;;-144.99;87.16;52415.47;5052766;28;20321;-63
2023/04/18 03:05:30;;;;;;;;;;;;;;;-144.99;87.12;52407.31;5049584;28;19999;-63
2023/04/18 03:07:58;;;;;;;;;;;;;;;-144.99;87.30;52395.09;5054192;28;19964;-67
2023/04/18 03:10:25;;;;;;;;;;;;;;;-144.99;87.24;52333.94;5056847;28;19928;-68
2023/04/18 03:12:51;;;;;;;;;;;;;;;-144.99;87.58;52391.03;5048648;28;19964;-68
2023/04/18 03:15:18;;;;;;;;;;;;;;;-144.99;87.71;52386.94;5055881;28;19994;-67
2023/04/18 03:17:44;;;;;;;;;;;;;;;-144.99;87.81;52350.25;5047793;28;19966;-68
2023/04/18 03:20:11;;;;;;;;;;;;;;;-144.99;88.11;52388.97;5048149;28;20386;-67
2023/04/18 03:22:38;;;;;;;;;;;;;;;-144.99;88.23;52366.56;5050876;28;20378;-73
2023/04/18 03:25:07;;;;;;;;;;;;;;;-144.99;88.18;52384.91;5053289;28;19936;-70
2023/04/18 03:27:33;;;;;;;;;;;;;;;-144.99;88.20;52391.03;5050103;28;19932;-68
2023/04/18 03:30:00;;;;;;;;;;;;;;;-144.99;88.13;52354.34;5052651;28;19955;-69
2023/04/18 03:32:26;;;;;;;;;;;;;;;-144.99;88.35;52366.56;5050661;28;20521;-68
2023/04/18 03:34:53;;;;;;;;;;;;;;;-144.99;88.29;52374.72;5055289;28;20346;-67
2023/04/18 03:37:19;;;;;;;;;;;;;;;-144.99;88.48;52395.09;5052059;28;20164;-63
2023/04/18 03:39:47;;;;;;;;;;;;;;;-144.99;88.49;52423.63;5050432;28;19997;-67
2023/04/18 03:42:15;;;;;;;;;;;;;;;-144.99;88.41;52376.75;5050808;28;19933;-66
2023/04/18 03:44:41;;;;;;;;;;;;;;;-144.99;88.18;52409.38;5047887;28;20463;-67
2023/04/18 03:47:08;;;;;;;;;;;;;;;-144.99;91.09;52370.63;5051718;28;20343;-67
2023/04/18 03:49:35;;;;;;;;;;;;;;;-144.99;91.97;52397.13;5049575;28;20393;-67
2023/04/18 03:52:01;;;;;;;;;;;;;;;-144.99;92.12;52419.56;5049375;28;19925;-67
2023/04/18 03:54:28;;;;;;;;;;;;;;;-144.99;92.08;52374.72;5054199;28;20407;-67
2023/04/18 03:56:54;;;;;;;;;;;;;;;-144.99;89.58;52399.19;5050572;28;19928;-68
2023/04/18 03:59:22;;;;;;;;;;;;;;;-144.99;88.59;52391.03;5047572;28;19925;-69
2023/04/18 04:01:49;;;;;;;;;;;;;;;-144.99;88.56;52378.78;5048160;28;20448;-64
2023/04/18 04:04:15;;;;;;;;;;;;;;;-144.99;90.83;52352.28;5050247;28;19964;-66
2023/04/18 04:06:42;;;;;;;;;;;;;;;-144.99;91.40;52395.09;5064238;28;19936;-65
2023/04/18 04:09:08;;;;;;;;;;;;;;;-144.99;91.75;52391.03;5056272;28;19932;-66
2023/04/18 04:11:35;;;;;;;;;;;;;;;-144.99;91.97;52378.78;5046820;28;19932;-66
2023/04/18 04:14:01;;;;;;;;;;;;;;;-144.99;91.66;52403.25;5052520;28;20480;-66
2023/04/18 04:16:29;;;;;;;;;;;;;;;-144.99;92.02;52358.41;5053111;28;21232;-63
2023/04/18 04:18:56;;;;;;;;;;;;;;;-144.99;92.28;52391.03;5053293;28;21456;-68
2023/04/18 04:21:22;;;;;;;;;;;;;;;-144.99;92.52;52399.19;5050316;28;19951;-67
2023/04/18 04:23:49;;;;;;;;;;;;;;;-144.99;92.10;52399.19;5048758;28;20373;-66
2023/04/18 04:26:15;;;;;;;;;;;;;;;-144.99;92.60;52413.44;5049524;28;20031;-67
2023/04/18 04:28:45;;;;;;;;;;;;;;;-144.99;92.77;52354.34;5052784;28;19947;-63
2023/04/18 04:31:11;;;;;;;;;;;;;;;-144.99;91.51;52384.91;5052413;28;19924;-63
2023/04/18 04:33:39;;;;;;;;;;;;;;;-144.99;90.04;52331.91;5055129;28;19924;-63
2023/04/18 04:36:07;;;;;;;;;;;;;;;-144.99;89.84;52374.72;5055206;28;20012;-63
2023/04/18 04:38:36;;;;;;;;;;;;;;;-144.99;89.74;52407.31;5052195;28;19925;-63
2023/04/18 04:41:03;;;;;;;;;;;;;;;-144.99;90.19;52397.13;5050287;28;19938;-63
2023/04/18 04:43:30;;;;;;;;;;;;;;;-144.99;89.59;52374.72;5054828;28;20397;-63
2023/04/18 04:45:56;;;;;;;;;;;;;;;-144.99;89.00;52366.56;5054555;28;20027;-63
2023/04/18 04:48:23;;;;;;;;;;;;;;;-144.99;88.44;52354.34;5052520;28;19924;-63
2023/04/18 04:50:55;;;;;;;;;;;;;;;-144.99;88.04;52358.41;5056322;28;20359;-63
2023/04/18 04:53:21;;;;;;;;;;;;;;;-144.99;87.65;52358.41;5053763;28;20021;-63
2023/04/18 04:55:48;;;;;;;;;;;;;;;-144.99;87.48;52372.69;5050573;28;19968;-63
2023/04/18 04:58:14;;;;;;;;;;;;;;;-144.99;86.84;52358.41;5054406;28;19952;-63
2023/04/18 05:00:41;;;;;;;;;;;;;;;-144.99;86.69;52401.22;5051425;28;20623;-63
2023/04/18 05:03:07;;;;;;;;;;;;;;;-144.99;86.40;52370.63;5052280;28;19970;-64
2023/04/18 05:05:34;;;;;;;;;;;;;;;-144.99;86.30;52370.63;5054368;28;20295;-64
2023/04/18 05:08:02;;;;;;;;;;;;;;;-144.99;85.89;52366.56;5057721;28;19968;-64
2023/04/18 05:10:29;;;;;;;;;;;;;;;-144.99;85.67;52372.69;5054165;28;20385;-65
2023/04/18 05:12:55;;;;;;;;;;;;;;;-144.99;85.24;52354.34;5053239;28;20027;-65
2023/04/18 05:15:23;;;;;;;;;;;;;;;-144.99;85.01;52403.25;5059064;28;19964;-65
2023/04/18 05:17:49;;;;;;;;;;;;;;;-144.99;84.78;52356.38;5053202;28;20385;-65
2023/04/18 05:20:16;;;;;;;;;;;;;;;-144.99;84.70;52395.09;5053615;28;20033;-65
2023/04/18 05:22:42;;;;;;;;;;;;;;;-144.99;84.39;52333.94;5052481;28;20302;-65
2023/04/18 05:25:11;;;;;;;;;;;;;;;-144.99;84.17;52362.50;5064175;28;19978;-71
2023/04/18 05:27:37;;;;;;;;;;;;;;;-144.99;83.99;52354.34;5070591;28;19935;-70
2023/04/18 05:30:04;;;;;;;;;;;;;;;-144.99;83.76;52346.19;5070943;28;19950;-72
2023/04/18 05:32:31;;;;;;;;;;;;;;;-144.99;83.34;52348.22;5066057;28;20455;-71
2023/04/18 05:34:57;;;;;;;;;;;;;;;-144.99;82.99;52358.41;5067195;28;19928;-61
2023/04/18 05:37:24;;;;;;;;;;;;;;;-144.99;82.60;52366.56;5069326;28;19967;-66
2023/04/18 05:39:50;;;;;;;;;;;;;;;-144.99;82.63;52378.78;5062152;28;20019;-66
2023/04/18 05:42:18;;;;;;;;;;;;;;;-144.99;82.36;52370.63;5059964;28;20554;-66
2023/04/18 05:44:45;;;;;;;;;;;;;;;-144.99;82.36;52321.72;5058578;28;19932;-64
2023/04/18 05:47:11;;;;;;;;;;;;;;;-144.99;81.79;52366.56;5064838;28;19928;-69
2023/04/18 05:49:38;;;;;;;;;;;;;;;-144.99;81.72;52354.34;5058354;28;19928;-69
2023/04/18 05:52:04;;;;;;;;;;;;;;;-144.99;81.51;52338.03;5051820;28;20011;-68
2023/04/18 05:54:31;;;;;;;;;;;;;;;-144.99;81.31;52393.06;5062124;28;19937;-69
2023/04/18 05:56:58;;;;;;;;;;;;;;;-144.99;81.17;52362.50;5065912;28;19940;-68
2023/04/18 05:59:26;;;;;;;;;;;;;;;-144.99;80.87;52338.03;5058767;28;19946;-67
2023/04/18 06:01:53;;;;;;;;;;;;;;;-144.99;80.41;52354.34;5067132;28;20011;-68
2023/04/18 06:04:19;;;;;;;;;;;;;;;-144.99;79.70;52354.34;5063749;28;19924;-67
2023/04/18 06:06:46;;;;;;;;;;;;;;;-144.99;79.99;52333.94;5060353;28;19924;-68
2023/04/18 06:09:12;;;;;;;;;;;;;;;-144.99;79.90;52362.50;5059452;28;19925;-67
2023/04/18 06:11:39;;;;;;;;;;;;;;;-144.99;79.78;52313.56;5055775;28;20381;-67
2023/04/18 06:14:06;;;;;;;;;;;;;;;-144.99;79.82;52342.09;5049258;28;20177;-66
2023/04/18 06:16:35;;;;;;;;;;;;;;;-144.99;81.23;52352.28;5056974;28;19924;-66
2023/04/18 06:19:02;;;;;;;;;;;;;;;-144.99;79.96;52336.00;5063927;28;19953;-66
2023/04/18 06:21:28;;;;;;;;;;;;;;;-144.99;79.25;52325.81;5059608;28;19924;-65
2023/04/18 06:23:55;;;;;;;;;;;;;;;-144.99;78.98;52325.81;5052368;28;20074;-65
2023/04/18 06:26:21;;;;;;;;;;;;;;;-144.99;78.56;52364.53;5064505;28;19928;-65
2023/04/18 06:28:48;;;;;;;;;;;;;;;-144.99;78.50;52342.09;5059427;28;20025;-65
2023/04/18 06:31:15;;;;;;;;;;;;;;;-144.99;78.75;52338.03;5060586;28;19974;-65
2023/04/18 06:33:43;;;;;;;;;;;;;;;-144.99;79.05;52366.56;5059095;28;19924;-63
2023/04/18 06:36:09;;;;;;;;;;;;;;;-144.99;79.00;52327.84;5061128;28;19974;-64
2023/04/18 06:38:36;;;;;;;;;;;;;;;-144.99;78.94;52338.03;5052306;28;19990;-64
2023/04/18 06:41:02;;;;;;;;;;;;;;;-144.99;78.73;52362.50;5063735;28;19932;-64
2023/04/18 06:43:29;;;;;;;;;;;;;;;-144.99;78.27;52309.50;5057147;28;19976;-66
2023/04/18 06:45:56;;;;;;;;;;;;;;;-144.99;78.29;52305.41;5055961;28;19932;-66
2023/04/18 06:48:23;;;;;;;;;;;;;;;-144.99;78.59;52297.25;5052728;28;19925;-68
2023/04/18 06:50:50;;;;;;;;;;;;;;;-144.99;79.13;52376.75;5048857;28;19944;-67
2023/04/18 06:53:17;;;;;;;;;;;;;;;-144.99;78.95;52329.88;5050038;28;20400;-68
2023/04/18 06:55:43;;;;;;;;;;;;;;;-144.99;78.93;52317.66;5049929;28;19979;-68
2023/04/18 06:58:12;;;;;;;;;;;;;;;-144.99;78.20;52325.81;5048015;28;19932;-67
2023/04/18 07:00:39;;;;;;;;;;;;;;;-144.99;77.58;52348.22;5059578;28;19956;-67
2023/04/18 07:03:08;;;;;;;;;;;;;;;-144.99;77.16;52293.19;5054203;28;19929;-68
2023/04/18 07:05:35;;;;;;;;;;;;;;;-144.99;76.93;52342.09;5060924;28;20313;-66
2023/04/18 07:08:03;;;;;;;;;;;;;;;-144.99;76.84;52321.72;5056498;28;19928;-67
2023/04/18 07:10:29;;;;;;;;;;;;;;;-144.99;76.68;52370.63;5059634;28;19970;-66
2023/04/18 07:12:56;;;;;;;;;;;;;;;-144.99;76.33;52338.03;5057193;28;19946;-66
2023/04/18 07:15:22;;;;;;;;;;;;;;;-144.99;76.21;52338.03;5049031;28;20386;-67
2023/04/18 07:17:49;;;;;;;;;;;;;;;-144.99;75.79;52319.69;5051048;28;20008;-67
2023/04/18 07:20:16;;;;;;;;;;;;;;;-144.99;75.39;52331.91;5063841;28;19975;-67
2023/04/18 07:22:42;;;;;;;;;;;;;;;-144.99;75.35;52342.09;5050993;28;19972;-67
2023/04/18 07:25:10;;;;;;;;;;;;;;;-144.99;75.64;52338.03;5052362;28;20354;-67
2023/04/18 07:27:37;;;;;;;;;;;;;;;-144.99;75.21;52287.06;5049939;28;19932;-68
2023/04/18 07:30:04;;;;;;;;;;;;;;;-144.99;74.32;52289.13;5051609;28;20062;-68
2023/04/18 07:32:30;;;;;;;;;;;;;;;-144.99;74.52;52309.50;5058724;28;19928;-68
2023/04/18 07:34:57;;;;;;;;;;;;;;;-144.99;74.30;52305.41;5048750;28;20025;-68
2023/04/18 07:37:24;;;;;;;;;;;;;;;-144.99;74.16;52313.56;5048185;28;19931;-68
2023/04/18 07:39:51;;;;;;;;;;;;;;;-144.99;73.71;52313.56;5053860;28;20309;-65
2023/04/18 07:42:19;;;;;;;;;;;;;;;-144.99;73.84;52280.97;5055856;28;19928;-66
2023/04/18 07:44:45;;;;;;;;;;;;;;;-144.99;73.70;52305.41;5058503;28;20410;-65
2023/04/18 07:47:12;;;;;;;;;;;;;;;-144.99;73.06;52313.56;5048566;28;20010;-65
2023/04/18 07:49:39;;;;;;;;;;;;;;;-144.99;72.92;52297.25;5052182;28;20571;-66
2023/04/18 07:52:05;;;;;;;;;;;;;;;-144.99;72.54;52325.81;5052695;28;19924;-65
2023/04/18 07:54:32;;;;;;;;;;;;;;;-144.99;72.22;52285.03;5048414;28;19929;-65
2023/04/18 07:56:59;;;;;;;;;;;;;;;-144.99;71.69;52293.19;5049798;28;20366;-66
2023/04/18 07:59:27;;;;;;;;;;;;;;;-144.99;71.74;52313.56;5054193;28;19924;-65
2023/04/18 08:01:54;;;;;;;;;;;;;;;-144.99;71.35;52285.03;5062300;28;20002;-65
2023/04/18 08:04:20;;;;;;;;;;;;;;;-144.99;70.81;52280.97;5053090;28;19924;-65
2023/04/18 08:06:47;;;;;;;;;;;;;;;-144.99;70.98;52264.66;5051232;28;19935;-65
2023/04/18 08:09:13;;;;;;;;;;;;;;;-144.99;70.87;52301.34;5055194;28;19944;-66
2023/04/18 08:11:40;;;;;;;;;;;;;;;-144.99;72.19;52342.09;5052174;28;19978;-65
2023/04/18 08:14:07;;;;;;;;;;;;;;;-144.99;70.66;52307.47;5053710;28;19924;-64
2023/04/18 08:16:35;;;;;;;;;;;;;;;-144.99;70.42;52309.50;5047968;28;20010;-66
2023/04/18 08:19:01;;;;;;;;;;;;;;;-144.99;70.53;52342.09;5048090;28;19960;-66
2023/04/18 08:21:28;;;;;;;;;;;;;;;-144.99;70.64;52268.72;5061326;28;19968;-67
2023/04/18 08:23:54;;;;;;;;;;;;;;;-144.99;70.42;52260.56;5056518;28;20310;-66
2023/04/18 08:26:21;;;;;;;;;;;;;;;-144.99;70.16;52301.34;5057491;28;19978;-65
2023/04/18 08:28:47;;;;;;;;;;;;;;;-144.99;70.54;52293.19;5055082;28;20553;-65
2023/04/18 08:31:15;;;;;;;;;;;;;;;-144.99;71.02;52297.25;5062967;28;19935;-65
2023/04/18 08:33:43;;;;;;;;;;;;;;;-144.99;71.68;52276.88;5062234;28;19992;-67
2023/04/18 08:36:10;;;;;;;;;;;;;;;-144.99;71.94;52305.41;5054347;28;20351;-67
2023/04/18 08:38:37;;;;;;;;;;;;;;;-144.99;70.90;52305.41;5054463;28;20008;-64
2023/04/18 08:41:03;;;;;;;;;;;;;;;-144.99;70.58;52250.38;5057440;28;19997;-66
2023/04/18 08:43:30;;;;;;;;;;;;;;;-144.99;70.67;52248.34;5057888;28;19986;-66
2023/04/18 08:45:58;;;;;;;;;;;;;;;-144.99;69.84;52268.72;5058695;28;19967;-66
2023/04/18 08:48:25;;;;;;;;;;;;;;;-144.99;69.57;52297.25;5051337;28;20051;-66
2023/04/18 08:50:56;;;;;;;;;;;;;;;-144.99;69.46;52264.66;5047425;28;19928;-67
2023/04/18 08:53:23;;;;;;;;;;;;;;;-144.99;68.96;52254.47;5059831;28;20004;-66
2023/04/18 08:55:52;;;;;;;;;;;;;;;-144.99;69.01;52264.66;5058702;28;19971;-66
2023/04/18 08:58:21;;;;;;;;;;;;;;;-144.99;68.97;52285.03;5056509;28;20416;-65
2023/04/18 09:00:49;;;;;;;;;;;;;;;-144.99;69.51;52272.81;5062057;28;19982;-67
2023/04/18 09:03:16;;;;;;;;;;;;;;;-144.99;69.20;52244.28;5055129;28;20507;-67
2023/04/18 09:05:42;;;;;;;;;;;;;;;-144.99;69.22;52262.63;5056007;28;19976;-69
2023/04/18 09:08:23;;;;;;;;;;;;;;;-144.99;69.97;52301.34;5064365;28;19928;-67
2023/04/18 09:10:50;;;;;;;;;;;;;;;-144.99;70.79;52240.19;5062665;28;20468;-67
2023/04/18 09:13:38;;;;;;;;;;;;;;;-144.99;71.12;52293.19;5060123;28;19931;-67
2023/04/18 09:16:06;;;;;;;;;;;;;;;-144.99;71.14;52268.72;5063070;28;19947;-66
2023/04/18 09:18:32;;;;;;;;;;;;;;;-144.99;71.56;52276.88;5061098;28;19978;-66
2023/04/18 09:21:16;;;;;;;;;;;;;;;-144.99;71.41;52276.88;5068112;28;19979;-68
2023/04/18 09:23:46;;;;;;;;;;;;;;;-144.99;71.63;52289.13;5058975;28;20015;-65
2023/04/18 09:26:12;;;;;;;;;;;;;;;-144.99;71.94;52272.81;5057452;28;19928;-66
2023/04/18 09:28:39;;;;;;;;;;;;;;;-144.99;71.88;52293.19;5068600;28;20013;-65
2023/04/18 09:31:07;;;;;;;;;;;;;;;-144.99;71.81;52272.81;5062574;28;20335;-65
2023/04/18 09:33:35;;;;;;;;;;;;;;;-144.99;72.60;52309.50;5063254;28;20390;-65
2023/04/18 09:36:16;;;;;;;;;;;;;;;-144.99;73.24;52333.94;5055709;28;19929;-68
2023/04/18 09:38:44;;;;;;;;;;;;;;;-144.99;73.36;52276.88;5055607;28;19928;-61
2023/04/18 09:41:11;;;;;;;;;;;;;;;-144.99;73.27;52285.03;5069253;28;19993;-62
2023/04/18 09:43:38;;;;;;;;;;;;;;;-144.99;72.81;52248.34;5066052;28;19981;-66
2023/04/18 09:46:05;;;;;;;;;;;;;;;-144.99;71.88;52289.13;5068385;28;20431;-65
2023/04/18 09:48:31;;;;;;;;;;;;;;;-144.99;71.23;52293.19;5060885;28;21599;-65
2023/04/18 09:50:59;;;;;;;;;;;;;;;-144.99;71.24;52248.34;5064189;28;19974;-65
2023/04/18 09:53:26;;;;;;;;;;;;;;;-144.99;70.32;52276.88;5055846;28;20398;-65
2023/04/18 09:55:55;;;;;;;;;;;;;;;-144.99;69.77;52225.94;5065495;28;19924;-65
2023/04/18 09:58:22;;;;;;;;;;;;;;;-144.99;70.17;52240.19;5065148;28;19928;-65
2023/04/18 10:00:49;;;;;;;;;;;;;;;-144.99;69.15;52293.19;5056064;28;19960;-65
2023/04/18 10:03:17;;;;;;;;;;;;;;;-144.99;69.73;52272.81;5065884;28;19951;-65
2023/04/18 10:05:44;;;;;;;;;;;;;;;-144.99;71.42;52305.41;5057844;28;20381;-65
2023/04/18 10:08:12;;;;;;;;;;;;;;;-144.99;71.88;52289.13;5063574;28;19970;-65
2023/04/18 10:10:39;;;;;;;;;;;;;;;-144.99;71.99;52260.56;5063487;28;19940;-65
2023/04/18 10:13:09;;;;;;;;;;;;;;;-144.99;71.08;52260.56;5067152;28;19978;-65
2023/04/18 10:15:39;;;;;;;;;;;;;;;-144.99;70.18;52240.19;5056243;28;19924;-66
2023/04/18 10:18:09;;;;;;;;;;;;;;;-144.99;69.95;52297.25;5062714;28;19954;-66
2023/04/18 10:20:36;;;;;;;;;;;;;;;-144.99;70.12;52276.88;5056474;28;19975;-65
2023/04/18 10:23:17;;;;;;;;;;;;;;;-144.99;70.22;52268.72;5068179;28;19928;-66
2023/04/18 10:25:50;;;;;;;;;;;;;;;-144.99;70.82;52325.81;5056960;28;20413;-65
2023/04/18 10:28:19;;;;;;;;;;;;;;;-144.99;71.12;52268.72;5059517;28;20039;-66
2023/04/18 10:31:04;;;;;;;;;;;;;;;-144.99;71.41;52313.56;5063865;28;19928;-65
2023/04/18 10:33:33;;;;;;;;;;;;;;;-144.99;71.82;52329.88;5058164;28;19924;-65
2023/04/18 10:36:00;;;;;;;;;;;;;;;-144.99;71.81;52325.81;5058771;28;19928;-65
2023/04/18 10:38:27;;;;;;;;;;;;;;;-144.99;71.95;52264.66;5059771;28;20356;-65
2023/04/18 10:41:12;;;;;;;;;;;;;;;-144.99;71.88;52317.66;5054515;28;19925;-65
2023/04/18 10:43:54;;;;;;;;;;;;;;;-144.99;71.88;52311.53;5066370;28;19932;-64
2023/04/18 10:46:23;;;;;;;;;;;;;;;-144.99;72.35;52319.69;5062451;28;19972;-65
2023/04/18 10:49:12;;;;;;;;;;;;;;;-144.99;72.54;52336.00;5057605;28;20246;-65
2023/04/18 10:51:38;;;;;;;;;;;;;;;-144.99;73.03;52321.72;5059419;28;20190;-65
2023/04/18 10:54:07;;;;;;;;;;;;;;;-144.99;72.96;52325.81;5067536;28;19932;-65
2023/04/18 10:56:33;;;;;;;;;;;;;;;-144.99;73.03;52354.34;5061865;28;20354;-65
2023/04/18 10:59:01;;;;;;;;;;;;;;;-144.99;73.24;52321.72;5060561;28;19928;-65
2023/04/18 11:01:31;;;;;;;;;;;;;;;-144.99;73.57;52311.53;5069233;28;19931;-65
2023/04/18 11:03:58;;;;;;;;;;;;;;;-144.99;73.79;52346.19;5065691;28;20120;-65
2023/04/18 11:06:26;;;;;;;;;;;;;;;-144.99;73.80;52362.50;5068370;28;20534;-65
2023/04/18 11:08:53;;;;;;;;;;;;;;;-144.99;73.70;52380.84;5056831;28;19929;-64
2023/04/18 11:11:20;;;;;;;;;;;;;;;-144.99;73.64;52333.94;5058646;28;20023;-65
2023/04/18 11:13:54;;;;;;;;;;;;;;;-144.99;73.80;52321.72;5064600;28;19928;-64
2023/04/18 11:16:33;;;;;;;;;;;;;;;-144.99;73.96;52350.25;5055294;28;20313;-64
2023/04/18 11:19:17;;;;;;;;;;;;;;;-144.99;74.18;52346.19;5060900;28;19970;-64
2023/04/18 11:21:43;;;;;;;;;;;;;;;-144.99;73.54;52272.81;5061961;28;20027;-65
2023/04/18 11:24:10;;;;;;;;;;;;;;;-144.99;73.38;52313.56;5061083;28;19924;-65
2023/04/18 11:26:38;;;;;;;;;;;;;;;-144.99;73.09;52293.19;5060469;28;19924;-65
2023/04/18 11:29:06;;;;;;;;;;;;;;;-144.99;72.80;52317.66;5055952;28;19929;-65
2023/04/18 11:31:32;;;;;;;;;;;;;;;-144.99;72.92;52321.72;5058594;28;20397;-65
2023/04/18 11:33:59;;;;;;;;;;;;;;;-144.99;72.84;52305.41;5067836;28;19924;-65
2023/04/18 11:36:33;;;;;;;;;;;;;;;-144.99;72.65;52297.25;5062046;28;19973;-65
2023/04/18 11:39:00;;;;;;;;;;;;;;;-144.99;73.11;52289.13;5059068;28;19936;-65
2023/04/18 11:41:27;;;;;;;;;;;;;;;-144.99;73.18;52305.41;5063956;28;19973;-65
2023/04/18 11:43:56;;;;;;;;;;;;;;;-144.99;72.84;52313.56;5059992;28;19931;-65
2023/04/18 11:46:37;;;;;;;;;;;;;;;-144.99;72.44;52248.34;5049798;28;20384;-67
2023/04/18 11:49:03;;;;;;;;;;;;;;;-144.99;72.42;52313.56;5061395;28;19986;-67
2023/04/18 11:51:37;;;;;;;;;;;;;;;-144.99;72.10;52264.66;5062386;28;19972;-66
2023/04/18 11:54:03;;;;;;;;;;;;;;;-144.99;71.30;52276.88;5061210;28;19925;-66
2023/04/18 11:56:30;;;;;;;;;;;;;;;-144.99;70.76;52309.50;5056686;28;19974;-66
2023/04/18 11:58:56;;;;;;;;;;;;;;;-144.99;70.90;52293.19;5063460;28;21181;-66
2023/04/18 12:01:24;;;;;;;;;;;;;;;-144.99;70.58;52268.72;5060845;28;19928;-66
2023/04/18 12:04:00;;;;;;;;;;;;;;;-144.99;71.49;52283.00;5056456;28;19932;-66
2023/04/18 12:06:27;;;;;;;;;;;;;;;-144.99;71.15;52287.06;5063392;28;20035;-65
2023/04/18 12:08:59;;;;;;;;;;;;;;;-144.99;71.33;52240.19;5063492;28;20070;-66
2023/04/18 12:11:26;;;;;;;;;;;;;;;-144.99;70.83;52309.50;5058283;28;19924;-66
2023/04/18 12:13:55;;;;;;;;;;;;;;;-144.99;70.61;52280.97;5061369;28;19928;-66
2023/04/18 12:16:32;;;;;;;;;;;;;;;-144.99;70.48;52297.25;5061117;28;19982;-66
2023/04/18 12:19:02;;;;;;;;;;;;;;;-144.99;70.23;52270.78;5058639;28;20381;-67
2023/04/18 12:21:29;;;;;;;;;;;;;;;-144.99;69.82;52309.50;5054754;28;20377;-67
2023/04/18 12:23:57;;;;;;;;;;;;;;;-144.99;69.89;52276.88;5060331;28;19925;-68
2023/04/18 12:26:26;;;;;;;;;;;;;;;-144.99;69.84;52262.63;5057492;28;19925;-65
2023/04/18 12:28:52;;;;;;;;;;;;;;;-144.99;69.85;52223.88;5066571;28;20382;-67
2023/04/18 12:31:20;;;;;;;;;;;;;;;-144.99;68.91;52280.97;5063886;28;20453;-68